Time;durP1;ratioP1;P1;durP2;ratioP2;P2;SDS_P1;SDS_P2;PMS_P1;PMS_P2;Temp;Humidity;BMP_temperature;BMP_pressure;BME280_temperature;BME280_humidity;BME280_pressure;Samples;Min_cycle;Max_cycle;Signal;HPM_P1;HPM_P2
2023/09/05 00:02:19;;;;;;;4.72;4.25;;;17.00;99.90;;;;;;5066871;28;20090;-77
2023/09/05 00:04:47;;;;;;;4.82;4.32;;;17.00;99.90;;;;;;5066519;28;20098;-77
2023/09/05 00:07:16;;;;;;;4.80;4.30;;;16.90;99.90;;;;;;5066742;28;20126;-78
2023/09/05 00:09:43;;;;;;;5.32;4.82;;;16.90;99.90;;;;;;5083158;28;20048;-77
2023/09/05 00:12:10;;;;;;;4.95;4.43;;;16.90;99.90;;;;;;5066702;28;20454;-77
2023/09/05 00:14:37;;;;;;;4.20;3.80;;;16.90;99.90;;;;;;5048785;28;20138;-77
2023/09/05 00:17:04;;;;;;;5.63;4.30;;;16.80;99.90;;;;;;5083079;28;20134;-77
2023/09/05 00:19:30;;;;;;;5.50;4.60;;;16.70;99.90;;;;;;5050091;28;20147;-77
2023/09/05 00:21:57;;;;;;;4.68;3.78;;;16.70;99.90;;;;;;5083455;28;20083;-78
2023/09/05 00:24:25;;;;;;;4.32;3.90;;;16.60;99.90;;;;;;5066739;28;20040;-78
2023/09/05 00:26:52;;;;;;;5.18;4.68;;;16.50;99.90;;;;;;5084556;28;20411;-77
2023/09/05 00:29:19;;;;;;;4.68;4.18;;;16.40;99.90;;;;;;5081987;28;20116;-78
2023/09/05 00:31:46;;;;;;;4.75;4.28;;;16.40;99.90;;;;;;5066373;28;20047;-78
2023/09/05 00:34:14;;;;;;;5.07;4.55;;;16.40;1.00;;;;;;5066300;28;20056;-77
2023/09/05 00:36:42;;;;;;;5.10;4.60;;;16.40;1.00;;;;;;5083280;28;20398;-77
2023/09/05 00:39:09;;;;;;;4.97;4.43;;;16.40;1.00;;;;;;5082926;28;20075;-77
2023/09/05 00:41:37;;;;;;;5.50;4.30;;;16.40;1.00;;;;;;5066292;28;20052;-77
2023/09/05 00:44:05;;;;;;;5.40;4.25;;;16.40;1.00;;;;;;5049473;28;20427;-77
2023/09/05 00:46:32;;;;;;;5.50;4.90;;;16.30;1.00;;;;;;5066242;28;20172;-78
2023/09/05 00:49:02;;;;;;;4.32;3.92;;;16.30;1.00;;;;;;5066029;28;20044;-77
2023/09/05 00:51:32;;;;;;;4.07;3.67;;;16.30;99.90;;;;;;5050676;28;20051;-77
2023/09/05 00:54:01;;;;;;;4.85;4.10;;;16.20;99.90;;;;;;5082890;28;20048;-78
2023/09/05 00:56:28;;;;;;;4.43;4.03;;;16.20;99.90;;;;;;5082594;28;20048;-77
2023/09/05 00:58:55;;;;;;;4.57;3.97;;;16.10;99.90;;;;;;5064740;28;20117;-77
2023/09/05 01:01:22;;;;;;;5.05;4.55;;;16.10;1.00;;;;;;5065412;28;20059;-77
2023/09/05 01:03:50;;;;;;;4.93;4.30;;;16.10;1.00;;;;;;5065582;28;20043;-78
2023/09/05 01:06:53;;;;;;;5.97;4.38;;;16.10;1.00;;;;;;5082464;28;20127;-77
2023/09/05 01:09:39;;;;;;;4.20;3.78;;;16.10;1.00;;;;;;5068386;28;20555;-77
2023/09/05 01:12:07;;;;;;;4.20;3.80;;;16.10;1.00;;;;;;5050670;28;20523;-78
2023/09/05 01:14:33;;;;;;;5.38;4.88;;;16.10;1.00;;;;;;5063934;28;20055;-77
2023/09/05 01:17:05;;;;;;;5.03;4.22;;;16.10;99.90;;;;;;5082360;28;20755;-77
2023/09/05 01:19:36;;;;;;;5.28;4.78;;;16.00;99.90;;;;;;5050302;28;20406;-77
2023/09/05 01:22:13;;;;;;;5.55;4.75;;;16.10;99.90;;;;;;5080980;28;20149;-77
2023/09/05 01:24:40;;;;;;;5.50;4.22;;;16.10;1.00;;;;;;5075720;28;20055;-77
2023/09/05 01:27:08;;;;;;;5.47;4.55;;;16.00;1.00;;;;;;5080662;28;20047;-78
2023/09/05 01:29:35;;;;;;;5.07;4.55;;;16.00;1.00;;;;;;5046164;28;20048;-77
2023/09/05 01:32:08;;;;;;;5.28;4.65;;;16.00;1.00;;;;;;5056557;28;20040;-77
2023/09/05 01:34:36;;;;;;;4.35;3.95;;;16.00;1.00;;;;;;5065364;28;20101;-77
2023/09/05 01:37:02;;;;;;;4.40;3.90;;;16.00;1.00;;;;;;5066107;28;20569;-77
2023/09/05 01:39:29;;;;;;;4.35;3.95;;;15.90;1.00;;;;;;5065724;28;20060;-77
2023/09/05 01:41:59;;;;;;;5.13;3.92;;;15.90;1.00;;;;;;5065704;28;20230;-77
2023/09/05 01:44:26;;;;;;;4.45;3.85;;;15.80;1.00;;;;;;5064350;28;20044;-77
2023/09/05 01:57:48;;;;;;;4.35;3.75;;;15.70;1.00;;;;;;5084491;28;20717;-78
2023/09/05 02:00:17;;;;;;;4.65;4.20;;;15.70;1.00;;;;;;5083889;28;20345;-78
2023/09/05 02:02:44;;;;;;;5.40;4.55;;;15.70;1.00;;;;;;5084836;28;20192;-77
2023/09/05 02:21:49;;;;;;;4.00;3.47;;;15.50;1.00;;;;;;5042486;28;20063;-77
2023/09/05 02:24:16;;;;;;;3.85;3.33;;;15.40;1.00;;;;;;5084100;28;20133;-79
2023/09/05 02:26:43;;;;;;;4.75;4.20;;;15.40;99.90;;;;;;5068114;28;20078;-79
2023/09/05 02:29:09;;;;;;;4.60;3.95;;;15.40;1.00;;;;;;5050173;28;20108;-77
2023/09/05 02:31:36;;;;;;;4.15;3.55;;;15.30;99.90;;;;;;5084641;28;20071;-76
2023/09/05 02:34:03;;;;;;;4.05;3.40;;;15.20;99.90;;;;;;5051582;28;20134;-77
2023/09/05 02:36:30;;;;;;;4.70;3.95;;;15.20;1.00;;;;;;5068278;28;20055;-77
2023/09/05 02:38:58;;;;;;;4.57;3.78;;;15.20;1.00;;;;;;5085057;28;20052;-77
2023/09/05 02:41:25;;;;;;;4.70;4.20;;;15.20;1.00;;;;;;5084848;28;20052;-77
2023/09/05 02:43:51;;;;;;;5.82;4.18;;;15.20;1.00;;;;;;5083171;28;20051;-77
2023/09/05 02:46:18;;;;;;;4.68;4.05;;;15.20;1.00;;;;;;5085783;28;20131;-77
2023/09/05 02:48:45;;;;;;;4.82;3.88;;;15.10;1.00;;;;;;5085609;28;20059;-77
2023/09/05 02:51:13;;;;;;;4.57;4.13;;;15.10;1.00;;;;;;5067757;28;20075;-77
2023/09/05 02:53:40;;;;;;;4.32;3.78;;;15.10;1.00;;;;;;5067394;28;20052;-76
2023/09/05 02:56:07;;;;;;;5.05;4.05;;;15.10;1.00;;;;;;5086115;28;20059;-77
2023/09/05 02:58:34;;;;;;;4.38;3.95;;;15.10;1.00;;;;;;5066585;28;20044;-77
2023/09/05 03:01:02;;;;;;;4.60;3.90;;;15.10;1.00;;;;;;5086087;28;20052;-77
2023/09/05 03:03:30;;;;;;;5.22;4.13;;;15.10;1.00;;;;;;5067188;28;20079;-77
2023/09/05 03:05:58;;;;;;;4.35;3.70;;;15.10;1.00;;;;;;5067891;28;20417;-79
2023/09/05 03:08:25;;;;;;;5.00;4.28;;;15.10;1.00;;;;;;5083599;28;20715;-79
2023/09/05 03:10:52;;;;;;;4.78;4.00;;;15.00;1.00;;;;;;5084648;28;20398;-78
2023/09/05 03:13:19;;;;;;;4.90;3.95;;;15.00;1.00;;;;;;5083408;28;20746;-78
2023/09/05 03:15:51;;;;;;;5.88;4.90;;;15.00;1.00;;;;;;5071451;28;20052;-78
2023/09/05 03:18:18;;;;;;;4.95;3.90;;;15.10;1.00;;;;;;5087855;28;20565;-78
2023/09/05 03:20:45;;;;;;;5.25;4.45;;;15.10;1.00;;;;;;5089137;28;20195;-79
2023/09/05 03:23:13;;;;;;;4.95;4.03;;;15.10;1.00;;;;;;5070958;28;20080;-78
2023/09/05 03:25:40;;;;;;;4.68;4.05;;;15.00;1.00;;;;;;5088996;28;20044;-78
2023/09/05 03:28:10;;;;;;;4.93;4.25;;;15.00;1.00;;;;;;5086515;28;20600;-77
2023/09/05 03:30:37;;;;;;;4.95;4.20;;;14.90;1.00;;;;;;5072032;28;20470;-79
2023/09/05 03:33:04;;;;;;;6.10;4.90;;;14.90;1.00;;;;;;5070306;28;20094;-79
2023/09/05 03:35:31;;;;;;;5.45;4.50;;;14.90;1.00;;;;;;5087849;28;20060;-79
2023/09/05 03:37:58;;;;;;;6.00;5.05;;;15.00;1.00;;;;;;5089326;28;20048;-79
2023/09/05 03:40:24;;;;;;;6.47;5.13;;;15.00;1.00;;;;;;5070876;28;20053;-79
2023/09/05 03:42:51;;;;;;;5.95;4.30;;;15.00;1.00;;;;;;5070203;28;20570;-79
2023/09/05 03:45:18;;;;;;;5.13;4.63;;;14.90;1.00;;;;;;5086351;28;20117;-80
2023/09/05 03:47:45;;;;;;;5.30;4.07;;;14.90;1.00;;;;;;5087222;28;20435;-79
2023/09/05 03:50:26;;;;;;;4.97;4.47;;;14.90;1.00;;;;;;5088266;28;20040;-79
2023/09/05 03:52:53;;;;;;;6.38;5.30;;;14.90;1.00;;;;;;5086800;28;20048;-79
2023/09/05 03:55:20;;;;;;;6.45;4.68;;;14.90;1.00;;;;;;5088890;28;20699;-79
2023/09/05 03:57:47;;;;;;;5.18;4.63;;;14.90;1.00;;;;;;5087299;28;20079;-79
2023/09/05 04:00:14;;;;;;;6.00;4.85;;;14.80;1.00;;;;;;5086130;28;20052;-79
2023/09/05 04:02:41;;;;;;;6.50;5.53;;;14.70;1.00;;;;;;5086974;28;20435;-79
2023/09/05 04:05:08;;;;;;;5.88;5.13;;;14.70;1.00;;;;;;5089178;28;20132;-79
2023/09/05 04:07:35;;;;;;;6.47;5.45;;;14.70;1.00;;;;;;5086981;28;20193;-78
2023/09/05 04:10:03;;;;;;;7.35;5.20;;;14.80;1.00;;;;;;5070501;28;20040;-78
2023/09/05 04:12:29;;;;;;;6.53;5.60;;;14.70;1.00;;;;;;5087395;28;20083;-79
2023/09/05 04:14:56;;;;;;;8.95;6.85;;;14.70;1.00;;;;;;5085465;28;20048;-78
2023/09/05 04:17:23;;;;;;;7.65;6.30;;;14.70;1.00;;;;;;5088573;28;20059;-79
2023/09/05 04:19:53;;;;;;;7.72;6.50;;;14.70;1.00;;;;;;5086587;28;20105;-78
2023/09/05 04:22:22;;;;;;;10.45;7.22;;;14.70;1.00;;;;;;5070308;28;20521;-79
2023/09/05 04:24:53;;;;;;;8.13;7.13;;;14.70;1.00;;;;;;5086182;28;20056;-79
2023/09/05 04:27:21;;;;;;;8.18;6.28;;;14.60;1.00;;;;;;5086919;28;20133;-80
2023/09/05 04:29:54;;;;;;;7.97;6.28;;;14.60;1.00;;;;;;5085352;28;20570;-79
2023/09/05 04:32:28;;;;;;;8.00;6.68;;;14.60;1.00;;;;;;5086492;28;20051;-78
2023/09/05 04:34:56;;;;;;;8.60;7.68;;;14.60;1.00;;;;;;5083725;28;20139;-79
2023/09/05 04:37:24;;;;;;;8.43;7.22;;;14.60;1.00;;;;;;5066368;28;20456;-78
2023/09/05 04:39:51;;;;;;;10.13;6.80;;;14.70;1.00;;;;;;5085247;28;20097;-78
2023/09/05 04:42:17;;;;;;;8.25;6.60;;;14.70;1.00;;;;;;5086502;28;20052;-78
2023/09/05 04:44:45;;;;;;;7.07;5.90;;;14.70;1.00;;;;;;5084935;28;20087;-79
2023/09/05 04:47:19;;;;;;;7.57;6.05;;;14.70;1.00;;;;;;5086187;28;20058;-78
2023/09/05 04:49:48;;;;;;;8.05;5.88;;;14.70;1.00;;;;;;5079243;28;20098;-79
2023/09/05 04:52:15;;;;;;;5.78;5.03;;;14.70;1.00;;;;;;5064378;28;20048;-79
2023/09/05 04:54:42;;;;;;;5.43;4.85;;;14.70;1.00;;;;;;5065645;28;20056;-79
2023/09/05 04:57:10;;;;;;;6.90;5.68;;;14.70;23.20;;;;;;5084015;28;20055;-78
2023/09/05 04:59:37;;;;;;;6.18;5.00;;;14.80;40.70;;;;;;5055508;28;20070;-77
2023/09/05 05:02:04;;;;;;;6.20;5.35;;;14.70;34.10;;;;;;5079047;28;20375;-77
2023/09/05 05:04:31;;;;;;;6.38;4.80;;;14.70;33.90;;;;;;5057616;28;20084;-78
2023/09/05 05:06:58;;;;;;;7.55;5.55;;;14.80;55.10;;;;;;5060690;28;20239;-77
2023/09/05 05:09:25;;;;;;;7.65;6.10;;;14.80;72.70;;;;;;5077598;28;20044;-77
2023/09/05 05:11:52;;;;;;;5.97;4.80;;;14.80;57.80;;;;;;5065621;28;20044;-77
2023/09/05 05:14:19;;;;;;;5.13;4.55;;;14.80;61.80;;;;;;5063578;28;21014;-77
2023/09/05 05:16:45;;;;;;;6.03;4.88;;;14.90;82.10;;;;;;5077808;28;20044;-78
2023/09/05 05:19:12;;;;;;;5.35;4.40;;;14.90;84.70;;;;;;5082263;28;20079;-78
2023/09/05 05:21:39;;;;;;;5.60;4.45;;;15.00;93.70;;;;;;5078675;28;20132;-77
2023/09/05 05:24:07;;;;;;;5.97;5.18;;;15.00;94.60;;;;;;5077189;28;20098;-77
2023/09/05 05:26:34;;;;;;;5.53;4.40;;;15.00;99.90;;;;;;5077245;28;20060;-78
2023/09/05 05:29:00;;;;;;;6.05;4.70;;;15.00;96.30;;;;;;5074853;28;20104;-78
2023/09/05 05:31:27;;;;;;;5.20;4.40;;;15.00;98.40;;;;;;5062087;28;20500;-77
2023/09/05 05:33:54;;;;;;;5.75;4.40;;;15.10;99.90;;;;;;5082630;28;20056;-77
2023/09/05 05:36:21;;;;;;;4.93;4.38;;;15.20;99.90;;;;;;5076189;28;20124;-77
2023/09/05 05:38:49;;;;;;;5.38;4.47;;;15.20;99.90;;;;;;5081122;28;20055;-77
2023/09/05 05:41:15;;;;;;;6.55;4.75;;;15.20;99.90;;;;;;5078736;28;20484;-77
2023/09/05 05:43:42;;;;;;;6.60;4.93;;;15.30;99.90;;;;;;5083097;28;20496;-77
2023/09/05 05:46:09;;;;;;;5.90;4.88;;;15.30;99.90;;;;;;5061065;28;20434;-77
2023/09/05 05:48:36;;;;;;;6.03;5.10;;;15.30;99.90;;;;;;5049759;28;20097;-77
2023/09/05 05:51:03;;;;;;;6.63;5.40;;;15.30;99.90;;;;;;5058872;28;20112;-78
2023/09/05 05:53:30;;;;;;;5.55;4.80;;;15.40;99.90;;;;;;5067579;28;20170;-78
2023/09/05 05:55:56;;;;;;;5.22;4.03;;;15.50;99.90;;;;;;5063268;28;20044;-77
2023/09/05 05:58:23;;;;;;;6.10;4.50;;;15.40;99.90;;;;;;5065275;28;20052;-78
2023/09/05 06:00:50;;;;;;;5.45;3.95;;;15.50;99.90;;;;;;5057144;28;20079;-77
2023/09/05 06:03:20;;;;;;;5.30;4.32;;;15.50;99.90;;;;;;5046368;28;20115;-78
2023/09/05 06:05:47;;;;;;;5.30;4.25;;;15.50;99.90;;;;;;5059408;28;20079;-77
2023/09/05 06:08:14;;;;;;;5.53;4.55;;;15.60;99.90;;;;;;5049998;28;20117;-78
2023/09/05 06:10:41;;;;;;;5.45;4.65;;;15.60;99.90;;;;;;5082651;28;20044;-78
2023/09/05 06:13:11;;;;;;;5.78;4.90;;;15.60;99.90;;;;;;5047563;28;20052;-76
2023/09/05 06:15:38;;;;;;;5.57;4.70;;;15.60;99.90;;;;;;5053401;28;20059;-77
2023/09/05 06:18:05;;;;;;;5.07;4.45;;;15.60;99.90;;;;;;5062562;28;20056;-77
2023/09/05 06:20:32;;;;;;;4.30;3.75;;;15.60;99.90;;;;;;5080312;28;20135;-77
2023/09/05 06:22:59;;;;;;;4.82;4.32;;;15.60;99.90;;;;;;5063322;28;20483;-77
2023/09/05 06:25:27;;;;;;;4.97;4.07;;;15.70;99.90;;;;;;5076608;28;20757;-78
2023/09/05 06:27:54;;;;;;;5.75;4.70;;;15.80;99.90;;;;;;5058548;28;20637;-77
2023/09/05 06:30:22;;;;;;;4.72;4.18;;;15.80;99.90;;;;;;5061505;28;20052;-77
2023/09/05 06:32:49;;;;;;;4.45;4.05;;;15.90;99.90;;;;;;5045390;28;20052;-77
2023/09/05 06:35:16;;;;;;;3.95;3.55;;;15.90;99.90;;;;;;5079208;28;20063;-77
2023/09/05 06:37:43;;;;;;;5.60;4.38;;;16.00;99.90;;;;;;5082734;28;20040;-77
2023/09/05 06:40:15;;;;;;;5.18;4.32;;;16.10;99.90;;;;;;5066059;28;20532;-77
2023/09/05 06:42:42;;;;;;;4.57;4.10;;;16.10;99.90;;;;;;5083955;28;20104;-77
2023/09/05 06:45:09;;;;;;;4.03;3.47;;;16.10;99.90;;;;;;5082112;28;20465;-77
2023/09/05 06:47:36;;;;;;;3.88;3.28;;;16.20;99.90;;;;;;5051441;28;20052;-77
2023/09/05 06:50:06;;;;;;;3.97;3.40;;;16.30;99.90;;;;;;5082267;28;20051;-76
2023/09/05 06:52:33;;;;;;;4.63;4.13;;;16.40;99.90;;;;;;5067247;28;20559;-77
2023/09/05 06:55:00;;;;;;;4.60;4.18;;;16.40;99.90;;;;;;5067972;28;20501;-77
2023/09/05 06:57:27;;;;;;;3.83;3.47;;;16.50;99.90;;;;;;5084253;28;20070;-76
2023/09/05 06:59:54;;;;;;;4.20;3.53;;;16.60;99.90;;;;;;5081289;28;21751;-77
2023/09/05 07:02:21;;;;;;;3.67;3.28;;;16.70;99.90;;;;;;5084730;28;20490;-77
2023/09/05 07:04:48;;;;;;;4.30;3.65;;;16.70;99.90;;;;;;5073152;28;20044;-75
2023/09/05 07:07:15;;;;;;;4.20;3.80;;;16.90;99.90;;;;;;5083937;28;20052;-76
2023/09/05 07:09:42;;;;;;;3.70;3.30;;;17.00;99.90;;;;;;5086892;28;20097;-76
2023/09/05 07:12:09;;;;;;;3.53;3.08;;;17.10;99.90;;;;;;5088239;28;20043;-77
2023/09/05 07:14:35;;;;;;;4.13;3.25;;;17.30;99.90;;;;;;5067597;28;20388;-77
2023/09/05 07:17:06;;;;;;;4.25;3.20;;;17.50;99.90;;;;;;5087198;28;20516;-77
2023/09/05 07:19:32;;;;;;;4.18;3.45;;;17.50;99.90;;;;;;5055115;28;20106;-77
2023/09/05 07:21:59;;;;;;;3.72;3.10;;;17.70;99.90;;;;;;5070474;28;20063;-77
2023/09/05 07:24:26;;;;;;;3.38;3.08;;;17.90;99.90;;;;;;5087372;28;20048;-77
2023/09/05 07:26:53;;;;;;;3.63;3.13;;;18.00;99.90;;;;;;5088650;28;20055;-78
2023/09/05 07:29:20;;;;;;;4.65;3.45;;;18.10;99.90;;;;;;5085950;28;20047;-77
2023/09/05 07:31:48;;;;;;;5.57;4.55;;;18.30;99.90;;;;;;5086967;28;20052;-77
2023/09/05 07:34:14;;;;;;;4.68;4.28;;;18.30;99.90;;;;;;5087005;28;20138;-77
2023/09/05 07:36:41;;;;;;;4.82;4.22;;;18.40;99.90;;;;;;5087083;28;20713;-77
2023/09/05 07:39:10;;;;;;;4.65;4.25;;;18.50;99.90;;;;;;5069805;28;20602;-78
2023/09/05 07:41:38;;;;;;;5.20;3.78;;;18.60;99.90;;;;;;5070025;28;20052;-77
2023/09/05 07:44:05;;;;;;;5.47;4.30;;;18.70;99.90;;;;;;5082491;28;20395;-77
2023/09/05 07:46:32;;;;;;;4.40;3.70;;;18.70;99.90;;;;;;5078630;28;20056;-77
2023/09/05 07:49:00;;;;;;;4.10;3.70;;;18.60;99.90;;;;;;5078503;28;20047;-77
2023/09/05 07:51:29;;;;;;;3.60;3.30;;;18.60;99.80;;;;;;5075992;28;20060;-76
2023/09/05 07:54:10;;;;;;;5.80;5.13;;;18.60;99.90;;;;;;5076109;28;20109;-80
2023/09/05 07:56:39;;;;;;;3.63;3.13;;;18.60;99.90;;;;;;5060571;28;20051;-79
2023/09/05 07:59:06;;;;;;;5.25;4.47;;;18.70;99.90;;;;;;5059867;28;20051;-80
2023/09/05 08:01:33;;;;;;;4.07;3.70;;;18.70;99.90;;;;;;5046822;28;20053;-79
2023/09/05 08:04:00;;;;;;;5.40;4.88;;;18.70;99.90;;;;;;5062362;28;20264;-80
2023/09/05 08:06:28;;;;;;;5.15;4.65;;;18.60;99.90;;;;;;5075181;28;20299;-80
2023/09/05 08:08:55;;;;;;;3.80;3.45;;;18.80;99.90;;;;;;5062325;28;20055;-80
2023/09/05 08:11:23;;;;;;;4.03;3.63;;;18.90;99.90;;;;;;5062399;28;20052;-80
2023/09/05 08:13:50;;;;;;;3.95;3.53;;;19.00;99.90;;;;;;5077012;28;20056;-79
2023/09/05 08:16:20;;;;;;;3.30;3.00;;;19.00;99.90;;;;;;5046600;28;20060;-80
2023/09/05 08:18:46;;;;;;;3.50;3.20;;;19.10;99.90;;;;;;5046019;28;20087;-80
2023/09/05 08:21:13;;;;;;;3.75;3.33;;;19.30;99.90;;;;;;5076308;28;20084;-80
2023/09/05 08:23:40;;;;;;;5.13;4.55;;;19.30;99.90;;;;;;5076721;28;20051;-79
2023/09/05 08:26:10;;;;;;;5.93;5.30;;;19.40;99.90;;;;;;5073858;28;20132;-79
2023/09/05 08:28:43;;;;;;;6.75;5.85;;;19.40;99.90;;;;;;5077405;28;20847;-80
2023/09/05 08:31:10;;;;;;;6.70;6.05;;;19.40;99.90;;;;;;5046278;28;20052;-79
2023/09/05 08:33:44;;;;;;;10.05;7.68;;;19.30;99.90;;;;;;5061882;28;20214;-80
2023/09/05 08:36:11;;;;;;;6.55;5.95;;;19.40;99.90;;;;;;5076347;28;20040;-80
2023/09/05 08:38:38;;;;;;;5.93;5.38;;;19.30;99.90;;;;;;5075785;28;20102;-80
2023/09/05 08:41:06;;;;;;;6.97;5.50;;;19.40;99.90;;;;;;5057283;28;20067;-79
2023/09/05 08:43:34;;;;;;;4.10;3.70;;;19.50;99.90;;;;;;5072836;28;20093;-79
2023/09/05 08:46:02;;;;;;;3.78;3.42;;;19.70;99.90;;;;;;5055908;28;20109;-80
2023/09/05 08:48:30;;;;;;;3.88;3.58;;;19.80;99.90;;;;;;5073259;28;20048;-79
2023/09/05 08:51:13;;;;;;;4.30;3.90;;;20.00;99.90;;;;;;5048977;28;20059;-79
2023/09/05 08:53:46;;;;;;;4.57;4.18;;;20.10;99.90;;;;;;5075690;28;20095;-80
2023/09/05 08:56:13;;;;;;;5.40;4.90;;;20.20;54.40;;;;;;5060126;28;20048;-80
2023/09/05 08:58:40;;;;;;;4.75;4.00;;;20.20;30.90;;;;;;5076432;28;20632;-80
2023/09/05 09:01:07;;;;;;;4.22;3.80;;;20.20;27.70;;;;;;5061152;28;20169;-78
2023/09/05 09:03:35;;;;;;;4.50;3.92;;;20.30;11.40;;;;;;5062134;28;20052;-79
2023/09/05 09:06:02;;;;;;;4.35;3.65;;;20.40;1.00;;;;;;5058651;28;20108;-78
2023/09/05 09:08:42;;;;;;;5.10;3.95;;;20.50;1.00;;;;;;5080066;28;20403;-79
2023/09/05 09:11:09;;;;;;;4.45;4.00;;;20.60;1.00;;;;;;5060626;28;20432;-77
2023/09/05 09:13:37;;;;;;;4.05;3.53;;;20.70;1.00;;;;;;5074183;28;20116;-76
2023/09/05 09:16:05;;;;;;;3.30;2.97;;;20.90;1.00;;;;;;5076488;28;20074;-76
2023/09/05 09:18:33;;;;;;;4.78;4.00;;;21.00;99.90;;;;;;5061018;28;20137;-77
2023/09/05 09:21:03;;;;;;;5.13;4.35;;;21.10;99.90;;;;;;5059415;28;20231;-80
2023/09/05 09:23:33;;;;;;;3.88;3.47;;;21.20;99.90;;;;;;5078909;28;20258;-80
2023/09/05 09:26:00;;;;;;;3.25;2.92;;;21.30;99.90;;;;;;5048890;28;20056;-80
2023/09/05 09:28:34;;;;;;;4.10;3.00;;;21.40;99.90;;;;;;5064071;28;20047;-80
2023/09/05 09:31:02;;;;;;;2.60;2.40;;;21.60;99.90;;;;;;5053516;28;20459;-80
2023/09/05 09:33:31;;;;;;;3.13;2.83;;;21.70;99.90;;;;;;5082948;28;20148;-80
2023/09/05 09:36:00;;;;;;;3.95;2.95;;;21.80;99.90;;;;;;5065098;28;20746;-80
2023/09/05 09:38:28;;;;;;;2.45;2.22;;;22.00;1.00;;;;;;5082389;28;20060;-81
2023/09/05 09:40:55;;;;;;;3.55;2.45;;;22.10;1.00;;;;;;5068454;28;20487;-81
2023/09/05 09:43:22;;;;;;;3.17;2.70;;;22.30;99.90;;;;;;5063545;28;20074;-81
2023/09/05 09:45:50;;;;;;;2.92;2.60;;;22.40;34.60;;;;;;5081485;28;20056;-81
2023/09/05 09:48:17;;;;;;;2.33;2.00;;;22.50;1.00;;;;;;5081083;28;20044;-81
2023/09/05 09:50:44;;;;;;;2.47;2.00;;;22.60;99.90;;;;;;5081530;28;20121;-80
2023/09/05 09:53:15;;;;;;;1.98;1.77;;;22.80;99.90;;;;;;5084173;28;20051;-81
2023/09/05 09:55:43;;;;;;;2.53;2.33;;;22.90;1.00;;;;;;5084839;28;20054;-80
2023/09/05 09:58:13;;;;;;;2.33;1.77;;;23.00;1.00;;;;;;5083168;28;20446;-82
2023/09/05 10:00:44;;;;;;;2.33;1.90;;;23.10;99.90;;;;;;5068246;28;20063;-81
2023/09/05 10:03:12;;;;;;;2.40;2.20;;;23.30;99.90;;;;;;5067897;28;20044;-81
2023/09/05 10:05:41;;;;;;;2.72;2.03;;;23.40;74.10;;;;;;5084468;28;20051;-81
2023/09/05 10:08:09;;;;;;;2.13;1.77;;;23.50;99.90;;;;;;5082878;28;20384;-81
2023/09/05 10:10:40;;;;;;;2.50;2.30;;;23.60;1.00;;;;;;5080956;28;20125;-81
2023/09/05 10:13:08;;;;;;;2.85;1.67;;;23.70;99.90;;;;;;5080673;28;20048;-81
2023/09/05 10:15:39;;;;;;;2.70;2.30;;;23.80;1.00;;;;;;5068453;28;20419;-81
2023/09/05 10:18:07;;;;;;;2.88;2.58;;;24.00;1.00;;;;;;5067169;28;20407;-81
2023/09/05 10:20:35;;;;;;;3.45;2.58;;;24.10;1.00;;;;;;5068249;28;20156;-81
2023/09/05 10:23:05;;;;;;;2.28;2.08;;;24.20;1.00;;;;;;5083293;28;20052;-81
2023/09/05 10:25:33;;;;;;;2.80;2.28;;;24.20;1.00;;;;;;5081130;28;20503;-82
2023/09/05 10:28:00;;;;;;;1.80;1.65;;;24.40;1.00;;;;;;5063457;28;20048;-81
2023/09/05 10:30:28;;;;;;;3.92;2.70;;;24.50;1.00;;;;;;5083686;28;20054;-82
2023/09/05 10:32:56;;;;;;;3.35;2.20;;;24.50;1.00;;;;;;5083491;28;20094;-81
2023/09/05 10:35:23;;;;;;;3.95;2.75;;;24.60;1.00;;;;;;5083948;28;20048;-81
2023/09/05 10:38:03;;;;;;;3.20;2.67;;;24.60;1.00;;;;;;5076481;28;20048;-80
2023/09/05 10:40:34;;;;;;;3.05;2.72;;;24.60;1.00;;;;;;5060088;28;20075;-81
2023/09/05 10:43:03;;;;;;;3.60;2.70;;;24.80;1.00;;;;;;5083269;28;20143;-80
2023/09/05 10:45:32;;;;;;;2.90;2.40;;;24.90;1.00;;;;;;5050919;28;20386;-81
2023/09/05 10:48:04;;;;;;;2.72;2.30;;;25.00;1.00;;;;;;5068811;28;20052;-80
2023/09/05 10:50:32;;;;;;;3.53;2.97;;;25.00;1.00;;;;;;5074866;28;20150;-79
2023/09/05 10:53:10;;;;;;;2.45;1.95;;;25.10;1.00;;;;;;5083458;28;20553;-80
2023/09/05 10:55:46;;;;;;;2.33;2.03;;;25.30;1.00;;;;;;5080222;28;20579;-80
2023/09/05 10:58:37;;;;;;;2.00;1.80;;;25.40;1.00;;;;;;5063496;28;20551;-80
2023/09/05 11:01:32;;;;;;;2.03;1.60;;;25.50;1.00;;;;;;5063332;28;20056;-80
2023/09/05 11:04:03;;;;;;;2.22;1.95;;;25.80;1.00;;;;;;5085073;28;20052;-80
2023/09/05 11:06:30;;;;;;;2.03;1.80;;;25.90;1.00;;;;;;5083722;28;20154;-80
2023/09/05 11:09:02;;;;;;;3.03;2.00;;;26.10;1.00;;;;;;5083863;28;20143;-80
2023/09/05 11:11:29;;;;;;;2.35;1.98;;;26.20;1.00;;;;;;5067289;28;20131;-80
2023/09/05 11:13:57;;;;;;;2.78;2.22;;;26.30;1.00;;;;;;5083208;28;20608;-80
2023/09/05 11:16:24;;;;;;;2.17;1.98;;;26.40;1.00;;;;;;5083631;28;20055;-80
2023/09/05 11:18:56;;;;;;;3.42;2.65;;;26.50;1.00;;;;;;5083520;28;20074;-80
2023/09/05 11:21:23;;;;;;;2.40;2.10;;;26.50;99.90;;;;;;5082161;28;20048;-81
2023/09/05 11:23:54;;;;;;;2.30;1.80;;;26.60;99.90;;;;;;5079916;28;20200;-80
2023/09/05 11:26:21;;;;;;;2.13;1.83;;;26.80;99.90;;;;;;5064528;28;20832;-80
2023/09/05 11:28:48;;;;;;;2.85;2.50;;;27.00;99.90;;;;;;5080027;28;20296;-81
2023/09/05 11:31:15;;;;;;;2.35;2.10;;;27.20;99.90;;;;;;5082319;28;20136;-80
2023/09/05 11:33:43;;;;;;;2.38;2.08;;;27.40;99.90;;;;;;5080311;28;20056;-81
2023/09/05 11:36:10;;;;;;;2.55;2.15;;;27.60;99.90;;;;;;5050539;28;20052;-81
2023/09/05 11:38:47;;;;;;;3.05;2.30;;;27.80;99.90;;;;;;5087126;28;20136;-81
2023/09/05 11:41:15;;;;;;;2.13;1.92;;;27.90;99.90;;;;;;5053699;28;20052;-81
2023/09/05 11:43:45;;;;;;;1.90;1.60;;;28.10;99.90;;;;;;5085774;28;20048;-81
2023/09/05 11:46:13;;;;;;;1.50;1.30;;;28.40;99.90;;;;;;5086914;28;20442;-81
2023/09/05 11:48:43;;;;;;;1.77;1.30;;;28.60;99.90;;;;;;5070112;28;20138;-80
2023/09/05 11:51:12;;;;;;;1.98;1.75;;;28.60;99.90;;;;;;5070167;28;20449;-82
2023/09/05 11:53:39;;;;;;;1.75;1.60;;;28.80;99.90;;;;;;5069954;28;20133;-81
2023/09/05 11:56:05;;;;;;;3.13;1.60;;;29.10;99.90;;;;;;5070051;28;20392;-81
2023/09/05 11:58:33;;;;;;;2.47;1.70;;;29.10;99.90;;;;;;5068631;28;20082;-81
2023/09/05 12:01:00;;;;;;;2.03;1.50;;;29.20;99.90;;;;;;5086428;28;20531;-81
2023/09/05 12:03:34;;;;;;;2.15;1.60;;;29.30;99.90;;;;;;5083197;28;20069;-80
2023/09/05 12:06:01;;;;;;;1.77;1.60;;;29.40;99.90;;;;;;5083094;28;20063;-81
2023/09/05 12:08:30;;;;;;;3.03;1.65;;;29.40;99.90;;;;;;5085350;28;20044;-81
2023/09/05 12:11:03;;;;;;;2.33;1.88;;;29.40;99.90;;;;;;5067731;28;20048;-81
2023/09/05 12:13:42;;;;;;;2.95;1.85;;;29.50;99.90;;;;;;5065588;28;20048;-81
2023/09/05 12:16:09;;;;;;;1.98;1.50;;;29.50;99.90;;;;;;5069358;28;20540;-81
2023/09/05 12:18:37;;;;;;;2.20;1.60;;;29.80;99.90;;;;;;5086306;28;20536;-81
2023/09/05 12:21:08;;;;;;;1.33;1.20;;;30.00;99.90;;;;;;5070782;28;20064;-81
2023/09/05 12:23:34;;;;;;;1.70;1.60;;;30.10;99.90;;;;;;5067676;28;20056;-80
2023/09/05 12:26:02;;;;;;;1.50;1.20;;;30.20;99.90;;;;;;5083939;28;20051;-80
2023/09/05 12:28:29;;;;;;;1.50;1.40;;;30.50;99.90;;;;;;5083501;28;20128;-81
2023/09/05 12:31:10;;;;;;;2.67;1.52;;;30.60;99.90;;;;;;5068499;28;20421;-81
2023/09/05 12:33:37;;;;;;;1.75;1.50;;;30.80;99.90;;;;;;5084303;28;20044;-81
2023/09/05 12:36:04;;;;;;;1.63;1.15;;;31.00;99.90;;;;;;5083393;28;20407;-81
2023/09/05 12:38:31;;;;;;;1.15;1.05;;;31.10;99.90;;;;;;5062737;28;20043;-82
2023/09/05 12:40:58;;;;;;;1.70;1.40;;;31.10;99.90;;;;;;5082941;28;20043;-82
2023/09/05 12:43:26;;;;;;;2.00;1.60;;;31.20;99.90;;;;;;5081643;28;20093;-81
2023/09/05 12:45:53;;;;;;;1.90;1.60;;;31.10;99.90;;;;;;5068950;28;20048;-81
2023/09/05 12:48:20;;;;;;;1.75;1.40;;;31.20;99.90;;;;;;5085087;28;20048;-82
2023/09/05 12:50:49;;;;;;;2.20;1.80;;;31.70;99.90;;;;;;5059342;28;20048;-81
2023/09/05 12:53:19;;;;;;;1.63;1.27;;;31.70;99.90;;;;;;5082657;28;20043;-82
2023/09/05 12:55:47;;;;;;;2.92;1.92;;;31.90;99.90;;;;;;5069439;28;20108;-82
2023/09/05 12:58:14;;;;;;;3.13;1.48;;;32.20;99.90;;;;;;5084214;28;20098;-81
2023/09/05 13:00:41;;;;;;;2.38;1.52;;;32.10;99.90;;;;;;5069218;28;20044;-81
2023/09/05 13:03:10;;;;;;;1.50;1.40;;;32.00;99.90;;;;;;5083108;28;20094;-81
2023/09/05 13:05:39;;;;;;;1.55;1.45;;;31.90;99.90;;;;;;5068944;28;20058;-82
2023/09/05 13:08:06;;;;;;;1.50;1.30;;;31.90;99.90;;;;;;5068586;28;20588;-81
2023/09/05 13:10:33;;;;;;;2.13;1.90;;;32.10;99.90;;;;;;5073297;28;20056;-82
2023/09/05 13:13:00;;;;;;;1.98;1.60;;;32.00;99.90;;;;;;5064914;28;20072;-81
2023/09/05 13:15:32;;;;;;;1.73;1.42;;;32.30;99.90;;;;;;5083900;28;20047;-82
2023/09/05 13:17:59;;;;;;;2.20;1.70;;;32.30;99.90;;;;;;5064996;28;20423;-81
2023/09/05 13:20:26;;;;;;;1.70;1.33;;;32.30;99.90;;;;;;5066493;28;20060;-81
2023/09/05 13:22:57;;;;;;;2.33;1.50;;;32.40;99.90;;;;;;5078419;28;20048;-81
2023/09/05 13:25:24;;;;;;;1.60;1.40;;;32.60;99.90;;;;;;5073138;28;20079;-82